N22318 KPUB-KBOI
Flight info
| Callsign | N22318 |
|---|---|
| Flight time | N/A |
| Altitude | 43000 |
| Route | RODDY TAUTT |
| Aircraft | C700/M-SBDGHM1RWXY/LB2 |
Departure
| Time | 2026-05-08 21:51 |
|---|---|
| Airport | Pueblo Memorial Airport (KPUB) |
Arrival
| Time | N/A |
|---|---|
| Airport | Boise Air Terminal/Gowen Field (KBOI) |
| Time | Latitude | Longitude | Altitude | Speed | Heading |
|---|---|---|---|---|---|
| 2026-05-08 21:39 | 38.28362 | -104.49845 | 4666 ft | 0 kts | 358° |
| 2026-05-08 21:46 | 38.28371 | -104.49845 | 4664 ft | 0 kts | 358° |
| 2026-05-08 21:47 | 38.28388 | -104.49846 | 4667 ft | 7 kts | 359° |
| 2026-05-08 21:47 | 38.28440 | -104.49847 | 4668 ft | 8 kts | 359° |
| 2026-05-08 21:47 | 38.28443 | -104.49847 | 4668 ft | 1 kts | 359° |
| 2026-05-08 21:47 | 38.28460 | -104.49848 | 4668 ft | 6 kts | 359° |
| 2026-05-08 21:48 | 38.28517 | -104.49837 | 4668 ft | 8 kts | 55° |
| 2026-05-08 21:48 | 38.28531 | -104.49742 | 4668 ft | 15 kts | 90° |
| 2026-05-08 21:48 | 38.28533 | -104.49579 | 4667 ft | 22 kts | 89° |
| 2026-05-08 21:48 | 38.28538 | -104.49352 | 4666 ft | 29 kts | 86° |
| 2026-05-08 21:49 | 38.28546 | -104.49065 | 4664 ft | 36 kts | 89° |
| 2026-05-08 21:49 | 38.28554 | -104.48726 | 4662 ft | 41 kts | 85° |
| 2026-05-08 21:49 | 38.28602 | -104.48348 | 4659 ft | 46 kts | 81° |
| 2026-05-08 21:49 | 38.28642 | -104.47931 | 4657 ft | 46 kts | 88° |
| 2026-05-08 21:50 | 38.28651 | -104.47615 | 4655 ft | 23 kts | 89° |
| 2026-05-08 21:50 | 38.28700 | -104.47490 | 4654 ft | 15 kts | 10° |
| 2026-05-08 21:50 | 38.28791 | -104.47537 | 4654 ft | 16 kts | 282° |
| 2026-05-08 21:50 | 38.28788 | -104.47848 | 4656 ft | 78 kts | 268° |
| 2026-05-08 21:51 | 38.28754 | -104.48935 | 4680 ft | 163 kts | 264° |
| 2026-05-08 21:51 | 38.28746 | -104.50617 | 5133 ft | 208 kts | 266° |
| 2026-05-08 21:51 | 38.28792 | -104.52521 | 6225 ft | 228 kts | 276° |
| 2026-05-08 21:51 | 38.29067 | -104.54599 | 7334 ft | 250 kts | 278° |
| 2026-05-08 21:52 | 38.29292 | -104.56897 | 8247 ft | 272 kts | 274° |
| 2026-05-08 21:52 | 38.29472 | -104.59408 | 9001 ft | 293 kts | 275° |
| 2026-05-08 21:52 | 38.29679 | -104.61956 | 9100 ft | 286 kts | 276° |
| 2026-05-08 21:52 | 38.29903 | -104.64484 | 9140 ft | 294 kts | 276° |
| 2026-05-08 21:53 | 38.30124 | -104.67076 | 9154 ft | 288 kts | 275° |
| 2026-05-08 21:53 | 38.30337 | -104.69639 | 9155 ft | 295 kts | 275° |
| 2026-05-08 21:53 | 38.30548 | -104.72200 | 9164 ft | 292 kts | 275° |
| 2026-05-08 21:53 | 38.30765 | -104.74779 | 9189 ft | 295 kts | 275° |
| 2026-05-08 21:54 | 38.30982 | -104.77394 | 9617 ft | 306 kts | 275° |
| 2026-05-08 21:54 | 38.31207 | -104.80122 | 11107 ft | 304 kts | 276° |
| 2026-05-08 21:54 | 38.31426 | -104.82784 | 12950 ft | 303 kts | 276° |
| 2026-05-08 21:54 | 38.31638 | -104.85311 | 14418 ft | 304 kts | 277° |
| 2026-05-08 21:55 | 38.31842 | -104.87800 | 15656 ft | 310 kts | 277° |
| 2026-05-08 21:55 | 38.32071 | -104.90581 | 16876 ft | 318 kts | 278° |